Mulberry, Indiana
Current Conditions -  °F | °C
As of 10:15 AM on Wednesday 26 Nov 2014 (Local Time) from KFKR Reporting Station
Overcast Overcast  
Wind Chill: 18°   Ceiling: 1300
Heat Index: 27°   Visibility: 10mi
Dew Point: 23°   Wind: 10mph
Humidity: 84%   Direction: 80°E
Pressure: 30.15"   Gusts: NA
Location:  40.34°N, 86.67°W
Report Text: KFKR 261515Z AUTO 08009KT 10SM OVC013 M03/M05 A3015 RMK AO2 T10261049
Loading
Personal Weather Stations






























Interactive Weather Map New forecast layout! Learn more

10-Day Weather Forecast

Advertisements
Track Severe Weather on mobile